createdAt,value
2018-03-30T00:00:37.807Z,988.38
2018-03-30T00:01:37.820Z,988.37
2018-03-30T00:02:37.792Z,988.37
2018-03-30T00:03:37.769Z,988.39
2018-03-30T00:04:37.758Z,988.37
2018-03-30T00:05:37.773Z,988.38
2018-03-30T00:06:37.745Z,988.37
2018-03-30T00:07:37.720Z,988.40
2018-03-30T00:08:37.758Z,988.40
2018-03-30T00:09:37.697Z,988.36
2018-03-30T00:10:37.689Z,988.34
2018-03-30T00:11:37.684Z,988.30
2018-03-30T00:12:37.682Z,988.33
2018-03-30T00:13:37.648Z,988.33
2018-03-30T00:14:37.654Z,988.33
2018-03-30T00:15:37.622Z,988.36
2018-03-30T00:16:37.610Z,988.32
2018-03-30T00:17:37.625Z,988.32
2018-03-30T00:18:37.589Z,988.30
2018-03-30T00:19:37.575Z,988.30
2018-03-30T00:20:37.561Z,988.27
2018-03-30T00:21:37.550Z,988.26
2018-03-30T00:22:37.544Z,988.24
2018-03-30T00:23:37.547Z,988.22
2018-03-30T00:24:37.513Z,988.24
2018-03-30T00:25:37.501Z,988.23
2018-03-30T00:26:37.490Z,988.23
2018-03-30T00:27:37.476Z,988.18
2018-03-30T00:28:37.464Z,988.24
2018-03-30T00:29:37.452Z,988.17
2018-03-30T00:30:37.440Z,988.21
2018-03-30T00:31:37.428Z,988.19
2018-03-30T00:32:37.416Z,988.20
2018-03-30T00:33:37.413Z,988.23
2018-03-30T00:34:37.451Z,988.15
2018-03-30T00:35:37.380Z,988.11
2018-03-30T00:36:37.379Z,988.14
2018-03-30T00:37:37.382Z,988.09
2018-03-30T00:38:37.349Z,988.11
2018-03-30T00:39:37.379Z,988.10
2018-03-30T00:40:37.369Z,988.04
2018-03-30T00:41:37.311Z,988.05
2018-03-30T00:42:37.294Z,988.02
2018-03-30T00:43:37.293Z,988.04
2018-03-30T00:44:37.269Z,988.00
2018-03-30T00:45:37.257Z,988.03
2018-03-30T00:46:37.248Z,988.02
2018-03-30T00:47:37.232Z,988.00
2018-03-30T00:48:37.220Z,987.95
2018-03-30T00:49:37.237Z,987.96
2018-03-30T00:50:37.197Z,988.01
2018-03-30T00:51:37.183Z,987.99
2018-03-30T00:52:37.173Z,988.00
2018-03-30T00:53:37.158Z,988.02
2018-03-30T00:54:37.152Z,987.98
2018-03-30T00:55:37.154Z,988.04
2018-03-30T00:56:37.122Z,988.02
2018-03-30T00:57:37.111Z,988.02
2018-03-30T00:58:37.098Z,988.03
2018-03-30T00:59:37.086Z,987.99
2018-03-30T01:00:37.073Z,987.98
2018-03-30T01:01:37.062Z,988.00
2018-03-30T01:02:37.050Z,988.03
2018-03-30T01:03:37.037Z,987.99
2018-03-30T01:04:37.025Z,988.02
2018-03-30T01:05:37.014Z,987.99
2018-03-30T01:06:37.009Z,988.03
2018-03-30T01:07:36.988Z,987.97
2018-03-30T01:08:37.016Z,987.97
2018-03-30T01:09:36.965Z,987.93
2018-03-30T01:10:36.961Z,987.96
2018-03-30T01:11:36.999Z,987.95
2018-03-30T01:12:36.929Z,987.93
2018-03-30T01:13:36.916Z,987.88
2018-03-30T01:14:36.929Z,987.90
2018-03-30T01:15:36.891Z,987.91
2018-03-30T01:16:36.880Z,987.89
2018-03-30T01:17:36.871Z,987.89
2018-03-30T01:18:36.856Z,987.95
2018-03-30T01:19:36.846Z,987.98
2018-03-30T01:20:36.837Z,987.90
2018-03-30T01:21:36.831Z,987.92
2018-03-30T01:22:36.820Z,987.90
2018-03-30T01:23:36.800Z,987.91
2018-03-30T01:24:36.783Z,987.92
2018-03-30T01:25:36.773Z,987.91
2018-03-30T01:26:36.760Z,987.88
2018-03-30T01:27:36.748Z,987.92
2018-03-30T01:28:36.735Z,987.92
2018-03-30T01:29:36.731Z,987.90
2018-03-30T01:30:36.712Z,987.88
2018-03-30T01:31:36.699Z,987.91
2018-03-30T01:32:36.689Z,987.91
2018-03-30T01:33:36.676Z,987.97
2018-03-30T01:34:36.663Z,988.00
2018-03-30T01:35:36.650Z,988.02
2018-03-30T01:36:36.638Z,988.04
2018-03-30T01:37:36.627Z,988.08
2018-03-30T01:38:36.627Z,988.12
2018-03-30T01:39:36.603Z,988.13
2018-03-30T01:40:36.626Z,988.16
2018-03-30T01:41:36.579Z,988.11
2018-03-30T01:42:36.574Z,988.14
2018-03-30T01:43:36.596Z,988.10
2018-03-30T01:44:36.543Z,988.08
2018-03-30T01:45:36.531Z,988.10
2018-03-30T01:46:36.539Z,988.09
2018-03-30T01:47:36.507Z,988.11
2018-03-30T01:48:36.496Z,988.08
2018-03-30T01:49:36.484Z,988.07
2018-03-30T01:50:36.473Z,988.07
2018-03-30T01:51:36.460Z,988.06
2018-03-30T01:52:36.462Z,988.09
2018-03-30T01:53:36.444Z,987.98
2018-03-30T01:54:36.426Z,987.98
2018-03-30T01:55:36.416Z,987.97
2018-03-30T01:56:36.402Z,988.00
2018-03-30T01:57:36.389Z,988.04
2018-03-30T01:58:36.409Z,988.04
2018-03-30T01:59:36.366Z,988.01
2018-03-30T02:00:36.354Z,987.94
2018-03-30T02:01:36.342Z,987.93
2018-03-30T02:02:36.330Z,988.00
2018-03-30T02:03:36.318Z,987.95
2018-03-30T02:04:36.307Z,987.96
2018-03-30T02:05:36.295Z,987.96
2018-03-30T02:06:36.283Z,988.00
2018-03-30T02:07:36.273Z,988.04
2018-03-30T02:08:36.287Z,987.99
2018-03-30T02:09:36.249Z,987.98
2018-03-30T02:10:36.236Z,988.00
2018-03-30T02:11:36.223Z,987.99
2018-03-30T02:12:36.212Z,987.94
2018-03-30T02:13:36.206Z,987.96
2018-03-30T02:14:36.208Z,987.95
2018-03-30T02:15:36.176Z,987.93
2018-03-30T02:16:36.164Z,987.89
2018-03-30T02:17:36.152Z,987.88
2018-03-30T02:18:36.140Z,987.87
2018-03-30T02:19:36.128Z,987.87
2018-03-30T02:20:36.117Z,987.85
2018-03-30T02:21:36.106Z,987.85
2018-03-30T02:22:36.095Z,987.81
2018-03-30T02:23:36.082Z,987.78
2018-03-30T02:24:36.089Z,987.82
2018-03-30T02:25:36.275Z,987.78
2018-03-30T02:26:36.047Z,987.78
2018-03-30T02:27:36.034Z,987.81
2018-03-30T02:28:36.045Z,987.79
2018-03-30T02:29:36.028Z,987.77
2018-03-30T02:30:36.008Z,987.77
2018-03-30T02:31:36.029Z,987.76
2018-03-30T02:32:35.977Z,987.77
2018-03-30T02:33:35.965Z,987.76
2018-03-30T02:34:35.959Z,987.77
2018-03-30T02:35:35.940Z,987.75
2018-03-30T02:36:35.929Z,987.77
2018-03-30T02:37:35.918Z,987.73
2018-03-30T02:38:35.906Z,987.69
2018-03-30T02:39:35.900Z,987.68
2018-03-30T02:40:35.906Z,987.74
2018-03-30T02:41:35.872Z,987.69
2018-03-30T02:42:35.861Z,987.73
2018-03-30T02:43:35.847Z,987.70
2018-03-30T02:44:35.850Z,987.67
2018-03-30T02:45:35.824Z,987.67
2018-03-30T02:46:35.820Z,987.68
2018-03-30T02:47:35.800Z,987.65
2018-03-30T02:48:35.789Z,987.65
2018-03-30T02:49:35.777Z,987.65
2018-03-30T02:50:35.766Z,987.65
2018-03-30T02:51:35.760Z,987.65
2018-03-30T02:52:35.744Z,987.67
2018-03-30T02:53:35.741Z,987.62
2018-03-30T02:54:35.721Z,987.66
2018-03-30T02:55:35.723Z,987.61
2018-03-30T02:56:35.696Z,987.61
2018-03-30T02:57:35.792Z,987.61
2018-03-30T02:58:35.674Z,987.55
2018-03-30T02:59:35.663Z,987.62
2018-03-30T03:00:35.656Z,987.60
2018-03-30T03:01:35.641Z,987.55
2018-03-30T03:02:35.628Z,987.59
2018-03-30T03:03:35.615Z,987.54
2018-03-30T03:04:35.604Z,987.58
2018-03-30T03:05:35.591Z,987.58
2018-03-30T03:06:35.581Z,987.58
2018-03-30T03:07:35.569Z,987.52
2018-03-30T03:08:35.556Z,987.51
2018-03-30T03:09:35.549Z,987.48
2018-03-30T03:10:35.534Z,987.46
2018-03-30T03:11:35.527Z,987.44
2018-03-30T03:12:35.510Z,987.42
2018-03-30T03:13:35.531Z,987.44
2018-03-30T03:14:35.487Z,987.36
2018-03-30T03:15:35.479Z,987.34
2018-03-30T03:16:35.679Z,987.32
2018-03-30T03:17:35.451Z,987.30
2018-03-30T03:18:35.441Z,987.28
2018-03-30T03:19:35.448Z,987.27
2018-03-30T03:20:35.421Z,987.28
2018-03-30T03:21:35.409Z,987.28
2018-03-30T03:22:35.393Z,987.29
2018-03-30T03:23:35.381Z,987.31
2018-03-30T03:24:35.370Z,987.27
2018-03-30T03:25:35.386Z,987.26
2018-03-30T03:26:35.350Z,987.30
2018-03-30T03:27:35.334Z,987.30
2018-03-30T03:28:35.323Z,987.30
2018-03-30T03:29:35.315Z,987.30
2018-03-30T03:30:35.310Z,987.31
2018-03-30T03:31:35.310Z,987.33
2018-03-30T03:32:35.276Z,987.33
2018-03-30T03:33:35.270Z,987.38
2018-03-30T03:34:35.252Z,987.40
2018-03-30T03:35:35.240Z,987.38
2018-03-30T03:36:35.228Z,987.35
2018-03-30T03:37:35.216Z,987.34
2018-03-30T03:38:35.208Z,987.35
2018-03-30T03:39:35.192Z,987.36
2018-03-30T03:40:35.181Z,987.35
2018-03-30T03:41:35.175Z,987.37
2018-03-30T03:42:35.206Z,987.35
2018-03-30T03:43:35.145Z,987.36
2018-03-30T03:44:35.133Z,987.35
2018-03-30T03:45:35.145Z,987.34
2018-03-30T03:46:35.128Z,987.32
2018-03-30T03:47:35.097Z,987.30
2018-03-30T03:48:35.132Z,987.32
2018-03-30T03:49:35.074Z,987.28
2018-03-30T03:50:35.062Z,987.30
2018-03-30T03:51:35.062Z,987.30
2018-03-30T03:52:35.039Z,987.28
2018-03-30T03:53:35.029Z,987.26
2018-03-30T03:54:35.015Z,987.26
2018-03-30T03:55:35.002Z,987.24
2018-03-30T03:56:35.027Z,987.22
2018-03-30T03:57:35.005Z,987.22
2018-03-30T03:58:34.966Z,987.25
2018-03-30T03:59:34.954Z,987.22
2018-03-30T04:00:34.942Z,987.24
2018-03-30T04:01:34.931Z,987.23
2018-03-30T04:02:34.920Z,987.22
2018-03-30T04:03:34.906Z,987.21
2018-03-30T04:04:34.937Z,987.22
2018-03-30T04:05:34.884Z,987.19
2018-03-30T04:06:34.871Z,987.22
2018-03-30T04:07:34.860Z,987.24
2018-03-30T04:08:34.846Z,987.25
2018-03-30T04:09:34.835Z,987.27
2018-03-30T04:10:34.823Z,987.30
2018-03-30T04:11:34.810Z,987.26
2018-03-30T04:12:34.809Z,987.27
2018-03-30T04:13:34.810Z,987.30
2018-03-30T04:14:34.775Z,987.29
2018-03-30T04:15:34.773Z,987.30
2018-03-30T04:16:34.751Z,987.26
2018-03-30T04:17:34.745Z,987.26
2018-03-30T04:18:34.729Z,987.25
2018-03-30T04:19:34.726Z,987.24
2018-03-30T04:20:34.716Z,987.27
2018-03-30T04:21:34.691Z,987.23
2018-03-30T04:22:34.679Z,987.25
2018-03-30T04:23:34.666Z,987.22
2018-03-30T04:24:34.665Z,987.26
2018-03-30T04:25:34.643Z,987.25
2018-03-30T04:26:34.636Z,987.25
2018-03-30T04:27:34.618Z,987.27
2018-03-30T04:28:34.623Z,987.27
2018-03-30T04:29:34.594Z,987.25
2018-03-30T04:30:34.632Z,987.24
2018-03-30T04:31:34.571Z,987.22
2018-03-30T04:32:34.557Z,987.25
2018-03-30T04:33:34.561Z,987.23
2018-03-30T04:34:34.545Z,987.21
2018-03-30T04:35:34.520Z,987.19
2018-03-30T04:36:34.547Z,987.16
2018-03-30T04:37:34.496Z,987.18
2018-03-30T04:38:34.483Z,987.15
2018-03-30T04:39:34.471Z,987.11
2018-03-30T04:40:34.479Z,987.15
2018-03-30T04:41:34.446Z,987.08
2018-03-30T04:42:34.433Z,987.03
2018-03-30T04:43:34.420Z,987.00
2018-03-30T04:44:34.408Z,987.01
2018-03-30T04:45:34.417Z,986.96
2018-03-30T04:46:34.382Z,986.95
2018-03-30T04:47:34.369Z,986.96
2018-03-30T04:48:34.359Z,986.94
2018-03-30T04:49:34.344Z,986.95
2018-03-30T04:50:34.331Z,986.92
2018-03-30T04:51:34.321Z,986.86
2018-03-30T04:52:34.305Z,986.84
2018-03-30T04:53:34.296Z,986.85
2018-03-30T04:54:34.280Z,986.82
2018-03-30T04:55:34.266Z,986.80
2018-03-30T04:56:34.262Z,986.73
2018-03-30T04:57:34.241Z,986.75
2018-03-30T04:58:34.243Z,986.73
2018-03-30T04:59:34.215Z,986.72
2018-03-30T05:00:34.202Z,986.73
2018-03-30T05:01:34.190Z,986.72
2018-03-30T05:02:34.188Z,986.76
2018-03-30T05:03:34.164Z,986.79
2018-03-30T05:04:34.152Z,986.81
2018-03-30T05:05:34.183Z,986.79
2018-03-30T05:06:34.133Z,986.80
2018-03-30T05:07:34.181Z,986.82
2018-03-30T05:08:34.114Z,986.77
2018-03-30T05:09:34.090Z,986.75
2018-03-30T05:10:34.113Z,986.74
2018-03-30T05:11:34.101Z,986.72
2018-03-30T05:12:34.054Z,986.76
2018-03-30T05:13:34.099Z,986.71
2018-03-30T05:14:34.026Z,986.70
2018-03-30T05:15:34.012Z,986.69
2018-03-30T05:16:34.036Z,986.67
2018-03-30T05:17:33.998Z,986.67
2018-03-30T05:18:33.975Z,986.69
2018-03-30T05:19:33.961Z,986.69
2018-03-30T05:20:33.959Z,986.67
2018-03-30T05:21:33.936Z,986.67
2018-03-30T05:22:33.924Z,986.64
2018-03-30T05:23:33.918Z,986.64
2018-03-30T05:24:33.902Z,986.68
2018-03-30T05:25:33.927Z,986.69
2018-03-30T05:26:33.880Z,986.67
2018-03-30T05:27:34.063Z,986.67
2018-03-30T05:28:33.847Z,986.67
2018-03-30T05:29:33.882Z,986.65
2018-03-30T05:30:33.822Z,986.68
2018-03-30T05:31:33.815Z,986.61
2018-03-30T05:32:33.796Z,986.64
2018-03-30T05:33:33.792Z,986.65
2018-03-30T05:34:33.779Z,986.65
2018-03-30T05:35:33.789Z,986.61
2018-03-30T05:36:33.745Z,986.60
2018-03-30T05:37:33.827Z,986.60
2018-03-30T05:38:33.720Z,986.62
2018-03-30T05:39:33.744Z,986.60
2018-03-30T05:40:33.694Z,986.61
2018-03-30T05:41:33.681Z,986.59
2018-03-30T05:42:33.670Z,986.56
2018-03-30T05:43:33.658Z,986.54
2018-03-30T05:44:33.642Z,986.57
2018-03-30T05:45:33.633Z,986.59
2018-03-30T05:46:33.617Z,986.60
2018-03-30T05:47:33.603Z,986.57
2018-03-30T05:48:33.593Z,986.57
2018-03-30T05:49:33.578Z,986.56
2018-03-30T05:50:33.771Z,986.51
2018-03-30T05:51:33.554Z,986.51
2018-03-30T05:52:33.541Z,986.48
2018-03-30T05:54:33.514Z,986.48
2018-03-30T05:55:33.502Z,986.54
2018-03-30T05:56:33.523Z,986.51
2018-03-30T05:57:33.473Z,986.49
2018-03-30T05:58:33.461Z,986.48
2018-03-30T05:59:33.449Z,986.48
2018-03-30T06:00:33.443Z,986.51
2018-03-30T06:01:33.425Z,986.50
2018-03-30T06:02:33.410Z,986.49
2018-03-30T06:03:33.395Z,986.49
2018-03-30T06:04:33.589Z,986.50
2018-03-30T06:05:33.370Z,986.50
2018-03-30T06:06:33.363Z,986.50
2018-03-30T06:08:33.331Z,986.48
2018-03-30T06:09:33.318Z,986.54
2018-03-30T06:10:33.354Z,986.53
2018-03-30T06:11:33.292Z,986.54
2018-03-30T06:12:33.279Z,986.52
2018-03-30T06:13:33.279Z,986.51
2018-03-30T06:14:33.259Z,986.50
2018-03-30T06:15:33.240Z,986.52
2018-03-30T06:16:33.231Z,986.53
2018-03-30T06:17:33.215Z,986.55
2018-03-30T06:18:33.203Z,986.52
2018-03-30T06:19:33.191Z,986.51
2018-03-30T06:20:33.177Z,986.50
2018-03-30T06:21:33.220Z,986.47
2018-03-30T06:22:33.152Z,986.50
2018-03-30T06:23:33.139Z,986.47
2018-03-30T06:24:33.210Z,986.45
2018-03-30T06:25:33.115Z,986.48
2018-03-30T06:26:33.102Z,986.46
2018-03-30T06:27:33.292Z,986.47
2018-03-30T06:28:33.082Z,986.40
2018-03-30T06:29:33.064Z,986.42
2018-03-30T06:30:33.254Z,986.41
2018-03-30T06:31:33.040Z,986.41
2018-03-30T06:32:33.026Z,986.40
2018-03-30T06:34:33.001Z,986.41
2018-03-30T06:35:32.988Z,986.44
2018-03-30T06:36:32.976Z,986.43
2018-03-30T06:37:32.963Z,986.42
2018-03-30T06:38:32.951Z,986.40
2018-03-30T06:39:32.943Z,986.38
2018-03-30T06:40:32.926Z,986.41
2018-03-30T06:41:32.925Z,986.43
2018-03-30T06:42:32.902Z,986.40
2018-03-30T06:43:32.889Z,986.39
2018-03-30T06:44:33.104Z,986.39
2018-03-30T06:45:32.865Z,986.37
2018-03-30T06:46:32.854Z,986.41
2018-03-30T06:47:32.880Z,986.37
2018-03-30T06:48:32.832Z,986.35
2018-03-30T06:49:32.816Z,986.33
2018-03-30T06:50:32.810Z,986.37
2018-03-30T06:51:32.791Z,986.31
2018-03-30T06:52:32.781Z,986.29
2018-03-30T06:53:32.766Z,986.28
2018-03-30T06:54:32.756Z,986.29
2018-03-30T06:55:32.742Z,986.30
2018-03-30T06:56:32.730Z,986.29
2018-03-30T06:57:32.718Z,986.33
2018-03-30T06:58:32.735Z,986.35
2018-03-30T06:59:32.693Z,986.26
2018-03-30T07:00:32.683Z,986.28
2018-03-30T07:02:32.657Z,986.29
2018-03-30T07:03:32.645Z,986.31
2018-03-30T07:04:32.718Z,986.31
2018-03-30T07:05:32.620Z,986.25
2018-03-30T07:06:32.608Z,986.28
2018-03-30T07:07:32.798Z,986.24
2018-03-30T07:08:32.584Z,986.28
2018-03-30T07:09:32.571Z,986.26
2018-03-30T07:10:32.601Z,986.24
2018-03-30T07:11:32.546Z,986.22
2018-03-30T07:12:32.542Z,986.26
2018-03-30T07:13:32.725Z,986.23
2018-03-30T07:14:32.511Z,986.23
2018-03-30T07:15:32.501Z,986.22
2018-03-30T07:16:32.499Z,986.24
2018-03-30T07:17:32.475Z,986.21
2018-03-30T07:18:32.468Z,986.16
2018-03-30T07:19:32.451Z,986.16
2018-03-30T07:20:32.443Z,986.17
2018-03-30T07:21:32.491Z,986.19
2018-03-30T07:22:32.456Z,986.19
2018-03-30T07:23:32.403Z,986.19
2018-03-30T07:24:32.480Z,986.16
2018-03-30T07:25:32.381Z,986.16
2018-03-30T07:26:32.372Z,986.13
2018-03-30T07:27:32.560Z,986.16
2018-03-30T07:28:32.345Z,986.14
2018-03-30T07:29:32.334Z,986.14
2018-03-30T07:30:32.351Z,986.07
2018-03-30T07:31:32.311Z,986.09
2018-03-30T07:32:32.299Z,986.11
2018-03-30T07:33:32.288Z,986.04
2018-03-30T07:34:32.277Z,986.01
2018-03-30T07:35:32.265Z,986.03
2018-03-30T07:36:32.254Z,986.05
2018-03-30T07:37:32.245Z,986.03
2018-03-30T07:38:32.233Z,986.02
2018-03-30T07:39:32.220Z,985.99
2018-03-30T07:40:32.210Z,985.99
2018-03-30T07:41:32.292Z,985.94
2018-03-30T07:42:32.188Z,985.91
2018-03-30T07:43:32.177Z,985.95
2018-03-30T07:44:32.219Z,985.96
2018-03-30T07:45:32.156Z,986.00
2018-03-30T07:46:32.146Z,986.00
2018-03-30T07:47:32.338Z,985.99
2018-03-30T07:48:32.126Z,985.99
2018-03-30T07:49:32.118Z,985.97
2018-03-30T07:50:32.108Z,985.95
2018-03-30T07:51:32.101Z,985.96
2018-03-30T07:52:32.091Z,985.94
2018-03-30T07:53:32.081Z,985.92
2018-03-30T07:54:32.072Z,985.91
2018-03-30T07:55:32.277Z,985.96
2018-03-30T07:56:32.054Z,985.93
2018-03-30T07:57:32.045Z,985.93
2018-03-30T07:58:32.126Z,985.95
2018-03-30T07:59:32.026Z,985.91
2018-03-30T08:00:32.019Z,985.91
2018-03-30T08:01:32.058Z,985.96
2018-03-30T08:02:32.006Z,985.94
2018-03-30T08:03:32.037Z,985.91
2018-03-30T08:04:31.991Z,985.93
2018-03-30T08:05:31.986Z,985.94
2018-03-30T08:06:32.060Z,985.88
2018-03-30T08:07:31.974Z,985.91
2018-03-30T08:08:31.968Z,985.86
2018-03-30T08:09:32.011Z,985.88
2018-03-30T08:10:31.959Z,985.86
2018-03-30T08:11:31.952Z,985.88
2018-03-30T08:12:31.949Z,985.89
2018-03-30T08:13:31.946Z,985.85
2018-03-30T08:14:31.941Z,985.88
2018-03-30T08:15:31.936Z,985.89
2018-03-30T08:16:31.933Z,985.89
2018-03-30T08:17:32.013Z,985.90
2018-03-30T08:18:31.927Z,985.84
2018-03-30T08:19:31.924Z,985.85
2018-03-30T08:20:31.957Z,985.76
2018-03-30T08:21:31.920Z,985.83
2018-03-30T08:22:31.982Z,985.84
2018-03-30T08:23:31.916Z,985.82
2018-03-30T08:24:31.918Z,985.80
2018-03-30T08:25:31.913Z,985.77
2018-03-30T08:26:31.912Z,985.77
2018-03-30T08:27:31.911Z,985.77
2018-03-30T08:28:32.009Z,985.74
2018-03-30T08:29:31.909Z,985.74
2018-03-30T08:30:31.912Z,985.73
2018-03-30T08:31:32.126Z,985.71
2018-03-30T08:32:31.906Z,985.65
2018-03-30T08:33:31.905Z,985.67
2018-03-30T08:34:31.904Z,985.62
2018-03-30T08:35:31.902Z,985.64
2018-03-30T08:36:31.900Z,985.62
2018-03-30T08:37:31.901Z,985.61
2018-03-30T08:38:31.901Z,985.61
2018-03-30T08:39:31.986Z,985.60
2018-03-30T08:40:31.897Z,985.55
2018-03-30T08:41:31.896Z,985.53
2018-03-30T08:42:31.935Z,985.54
2018-03-30T08:43:31.898Z,985.53
2018-03-30T08:44:31.896Z,985.56
2018-03-30T08:45:31.893Z,985.56
2018-03-30T08:46:31.893Z,985.52
2018-03-30T08:47:31.900Z,985.50
2018-03-30T08:48:31.891Z,985.47
2018-03-30T08:49:31.891Z,985.44
2018-03-30T08:50:32.095Z,985.41
2018-03-30T08:51:31.895Z,985.41
2018-03-30T08:52:31.890Z,985.40
2018-03-30T08:53:31.897Z,985.37
2018-03-30T08:54:31.893Z,985.38
2018-03-30T08:55:31.889Z,985.37
2018-03-30T08:56:31.888Z,985.34
2018-03-30T08:57:31.888Z,985.33
2018-03-30T08:58:32.122Z,985.28
2018-03-30T08:59:31.887Z,985.26
2018-03-30T09:00:31.886Z,985.26
2018-03-30T09:01:32.088Z,985.26
2018-03-30T09:02:31.885Z,985.23
2018-03-30T09:03:31.883Z,985.26
2018-03-30T09:04:31.886Z,985.26
2018-03-30T09:05:31.954Z,985.23
2018-03-30T09:06:31.881Z,985.18
2018-03-30T09:07:31.881Z,985.19
2018-03-30T09:08:31.875Z,985.18
2018-03-30T09:09:31.876Z,985.16
2018-03-30T09:10:31.872Z,985.20
2018-03-30T09:11:31.871Z,985.19
2018-03-30T09:12:31.869Z,985.18
2018-03-30T09:13:31.941Z,985.20
2018-03-30T09:14:31.868Z,985.14
2018-03-30T09:15:31.867Z,985.11
2018-03-30T09:16:31.875Z,985.12
2018-03-30T09:17:31.866Z,985.14
2018-03-30T09:18:31.869Z,985.08
2018-03-30T09:19:31.866Z,985.12
2018-03-30T09:20:31.873Z,985.12
2018-03-30T09:21:31.869Z,985.08
2018-03-30T09:22:31.875Z,985.05
2018-03-30T09:23:31.875Z,985.04
2018-03-30T09:24:31.972Z,985.01
2018-03-30T09:25:31.874Z,985.01
2018-03-30T09:26:31.878Z,984.98
2018-03-30T09:27:31.880Z,985.00
2018-03-30T09:28:31.879Z,984.95
2018-03-30T09:29:31.886Z,984.94
2018-03-30T09:30:31.882Z,984.93
2018-03-30T09:31:31.884Z,984.94
2018-03-30T09:32:31.939Z,984.90
2018-03-30T09:33:31.887Z,984.88
2018-03-30T09:34:31.891Z,984.86
2018-03-30T09:35:31.932Z,984.85
2018-03-30T09:36:31.891Z,984.84
2018-03-30T09:37:31.891Z,984.85
2018-03-30T09:38:31.896Z,984.83
2018-03-30T09:39:31.892Z,984.81
2018-03-30T09:40:31.892Z,984.75
2018-03-30T09:41:31.897Z,984.80
2018-03-30T09:42:31.894Z,984.74
2018-03-30T09:43:31.972Z,984.71
2018-03-30T09:44:31.894Z,984.74
2018-03-30T09:45:31.895Z,984.74
2018-03-30T09:46:31.894Z,984.75
2018-03-30T09:47:31.894Z,984.68
2018-03-30T09:48:31.893Z,984.65
2018-03-30T09:49:31.893Z,984.68
2018-03-30T09:50:31.893Z,984.68
2018-03-30T09:51:31.891Z,984.73
2018-03-30T09:52:31.890Z,984.68
2018-03-30T09:53:31.889Z,984.70
2018-03-30T09:54:31.977Z,984.67
2018-03-30T09:55:31.887Z,984.60
2018-03-30T09:56:31.882Z,984.63
2018-03-30T09:57:31.879Z,984.56
2018-03-30T09:58:31.877Z,984.50
2018-03-30T09:59:31.874Z,984.56
2018-03-30T10:00:31.869Z,984.52
2018-03-30T10:01:31.866Z,984.49
2018-03-30T10:02:32.066Z,984.46
2018-03-30T10:03:31.858Z,984.43
2018-03-30T10:04:32.057Z,984.44
2018-03-30T10:05:31.851Z,984.35
2018-03-30T10:06:31.850Z,984.43
2018-03-30T10:07:31.885Z,984.38
2018-03-30T10:08:31.839Z,984.40
2018-03-30T10:09:31.830Z,984.29
2018-03-30T10:10:31.832Z,984.31
2018-03-30T10:11:31.821Z,984.36
2018-03-30T10:12:31.821Z,984.29
2018-03-30T10:13:31.815Z,984.35
2018-03-30T10:14:31.815Z,984.35
2018-03-30T10:15:31.812Z,984.40
2018-03-30T10:16:31.810Z,984.28
2018-03-30T10:17:31.813Z,984.25
2018-03-30T10:18:31.909Z,984.26
2018-03-30T10:19:31.807Z,984.31
2018-03-30T10:20:31.808Z,984.26
2018-03-30T10:21:31.857Z,984.30
2018-03-30T10:22:31.811Z,984.22
2018-03-30T10:23:31.813Z,984.28
2018-03-30T10:24:31.852Z,984.20
2018-03-30T10:25:31.818Z,984.16
2018-03-30T10:26:31.819Z,984.16
2018-03-30T10:27:31.821Z,984.20
2018-03-30T10:28:31.823Z,984.09
2018-03-30T10:29:31.904Z,984.01
2018-03-30T10:30:31.829Z,984.00
2018-03-30T10:31:31.833Z,983.97
2018-03-30T10:32:31.894Z,983.93
2018-03-30T10:33:31.842Z,983.90
2018-03-30T10:34:31.842Z,983.85
2018-03-30T10:35:31.849Z,983.84
2018-03-30T10:36:31.854Z,983.80
2018-03-30T10:37:31.857Z,983.75
2018-03-30T10:38:31.861Z,983.76
2018-03-30T10:39:31.866Z,983.72
2018-03-30T10:40:31.926Z,983.64
2018-03-30T10:41:31.877Z,983.70
2018-03-30T10:42:31.884Z,983.68
2018-03-30T10:43:31.968Z,983.65
2018-03-30T10:44:31.894Z,983.70
2018-03-30T10:45:31.906Z,983.69
2018-03-30T10:46:31.908Z,983.61
2018-03-30T10:47:31.915Z,983.63
2018-03-30T10:48:32.132Z,983.59
2018-03-30T10:49:31.924Z,983.54
2018-03-30T10:50:31.929Z,983.46
2018-03-30T10:51:31.982Z,983.53
2018-03-30T10:52:31.939Z,983.39
2018-03-30T10:53:31.945Z,983.36
2018-03-30T10:54:31.962Z,983.41
2018-03-30T10:55:31.956Z,983.37
2018-03-30T10:56:31.962Z,983.33
2018-03-30T10:57:31.969Z,983.32
2018-03-30T10:58:31.978Z,983.32
2018-03-30T10:59:32.188Z,983.26
2018-03-30T11:00:31.985Z,983.21
2018-03-30T11:01:31.993Z,983.12
2018-03-30T11:02:32.045Z,983.14
2018-03-30T11:03:32.002Z,983.06
2018-03-30T11:04:32.012Z,983.03
2018-03-30T11:05:32.030Z,982.97
2018-03-30T11:06:32.017Z,982.96
2018-03-30T11:07:32.021Z,982.98
2018-03-30T11:08:32.027Z,982.93
2018-03-30T11:09:32.037Z,982.91
2018-03-30T11:10:32.100Z,982.94
2018-03-30T11:11:32.041Z,982.98
2018-03-30T11:12:32.045Z,982.99
2018-03-30T11:13:32.076Z,982.99
2018-03-30T11:14:32.058Z,982.97
2018-03-30T11:15:32.060Z,982.93
2018-03-30T11:16:32.063Z,982.90
2018-03-30T11:17:32.066Z,982.87
2018-03-30T11:18:32.161Z,982.86
2018-03-30T11:19:32.073Z,982.82
2018-03-30T11:20:32.078Z,982.85
2018-03-30T11:21:32.116Z,982.85
2018-03-30T11:22:32.085Z,982.84
2018-03-30T11:23:32.088Z,982.84
2018-03-30T11:24:32.113Z,982.82
2018-03-30T11:25:32.099Z,982.83
2018-03-30T11:26:32.101Z,982.80
2018-03-30T11:27:32.105Z,982.86
2018-03-30T11:28:32.108Z,982.92
2018-03-30T11:30:32.116Z,982.89
2018-03-30T11:31:32.121Z,982.98
2018-03-30T11:32:32.327Z,982.97
2018-03-30T11:33:32.127Z,983.03
2018-03-30T11:34:32.129Z,983.03
2018-03-30T11:35:32.140Z,983.09
2018-03-30T11:36:32.134Z,983.07
2018-03-30T11:37:32.343Z,983.08
2018-03-30T11:38:32.141Z,983.06
2018-03-30T11:39:32.143Z,983.12
2018-03-30T11:40:32.186Z,983.08
2018-03-30T11:41:32.150Z,983.12
2018-03-30T11:42:32.153Z,983.08
2018-03-30T11:43:32.150Z,983.05
2018-03-30T11:44:32.154Z,983.02
2018-03-30T11:45:32.154Z,982.99
2018-03-30T11:46:32.156Z,982.98
2018-03-30T11:47:32.155Z,983.03
2018-03-30T11:48:32.255Z,983.05
2018-03-30T11:49:32.159Z,983.17
2018-03-30T11:50:32.192Z,983.05
2018-03-30T11:51:32.205Z,983.02
2018-03-30T11:52:32.157Z,983.01
2018-03-30T11:53:32.157Z,983.03
2018-03-30T11:54:32.156Z,982.97
2018-03-30T11:55:32.156Z,982.96
2018-03-30T11:56:32.153Z,982.91
2018-03-30T11:57:32.154Z,982.89
2018-03-30T11:58:32.160Z,982.88
2018-03-30T12:00:32.148Z,982.90
2018-03-30T12:01:32.148Z,982.88
2018-03-30T12:02:32.202Z,982.84
2018-03-30T12:03:32.161Z,982.84
2018-03-30T12:04:32.142Z,982.76
2018-03-30T12:05:32.144Z,982.76
2018-03-30T12:06:32.140Z,982.75
2018-03-30T12:07:32.140Z,982.74
2018-03-30T12:08:32.216Z,982.73
2018-03-30T12:09:32.136Z,982.73
2018-03-30T12:10:32.136Z,982.79
2018-03-30T12:11:32.177Z,982.70
2018-03-30T12:12:32.131Z,982.78
2018-03-30T12:13:32.127Z,982.80
2018-03-30T12:14:32.149Z,982.85
2018-03-30T12:15:32.124Z,982.82
2018-03-30T12:16:32.125Z,982.86
2018-03-30T12:17:32.117Z,982.87
2018-03-30T12:18:32.115Z,982.82
2018-03-30T12:19:32.133Z,982.79
2018-03-30T12:20:32.109Z,982.87
2018-03-30T12:21:32.106Z,982.83
2018-03-30T12:22:32.310Z,982.89
2018-03-30T12:23:32.099Z,982.87
2018-03-30T12:24:32.098Z,982.77
2018-03-30T12:25:32.135Z,982.81
2018-03-30T12:26:32.090Z,982.71
2018-03-30T12:27:32.091Z,982.73
2018-03-30T12:28:32.084Z,982.76
2018-03-30T12:29:32.080Z,982.74
2018-03-30T12:30:32.077Z,982.73
2018-03-30T12:31:32.075Z,982.71
2018-03-30T12:32:32.075Z,982.70
2018-03-30T12:33:32.145Z,982.67
2018-03-30T12:34:32.066Z,982.74